Bushville, New York
Current Conditions -  °F | °C
As of 2:54 PM on Sunday 23 Nov 2014 (Local Time) from KBUF Reporting Station
Overcast Overcast  
Wind Chill:   Ceiling: 10000
Heat Index:   Visibility: 10mi
Dew Point:   Wind: 7mph
Humidity: 71%   Direction: 170°S
Pressure: 29.92"   Gusts: NA
Location:  42.9969°N, 78.2158°W
Report Text: KBUF 231954Z 17006KT 10SM SCT040 BKN100 OVC140 09/04 A2992 RMK AO2 SLP136 T00940044
Loading
Personal Weather Stations






























Interactive Weather Map New forecast layout! Learn more

10-Day Weather Forecast

Advertisements
Track Severe Weather on mobile